Terminal Aerodrome Forecast
Issued by NWS Springfield, MO

Home | Current Version | Previous Version | Text Only | Print | Product List | Glossary On
Versions: 1 2 3 4 5 6 7 8 9 10 11 12 13 14 15 16 17 18 19 20 21
000
FTUS43 KSGF 041726
TAFSGF
TAF
KSGF 041726Z 0418/0518 28009KT P6SM OVC010
     FM042300 30007KT P6SM SCT025
     FM050500 VRB03KT 4SM BR SKC
     FM050700 VRB03KT 1SM BR SKC
      TEMPO 0509/0513 1/2SM FG SCT008
     FM051300 15006KT 3SM BR SCT020
     FM051600 15009KT P6SM SCT110=

USA.gov is the U.S. government's official web portal to all federal, state and local government web resources and services.